createdAt,value
2022-08-24T00:01:02.748Z,1.08
2022-08-24T00:06:08.128Z,1.08
2022-08-24T00:11:11.912Z,1.45
2022-08-24T00:16:15.871Z,1.27
2022-08-24T00:21:19.723Z,1.15
2022-08-24T00:26:28.831Z,0.85
2022-08-24T00:31:31.940Z,1.42
2022-08-24T00:36:34.913Z,1.00
2022-08-24T00:41:41.602Z,1.00
2022-08-24T00:46:48.486Z,1.25
2022-08-24T00:51:58.530Z,1.25
2022-08-24T00:57:07.154Z,1.23
2022-08-24T01:02:18.465Z,1.10
2022-08-24T01:07:23.098Z,1.20
2022-08-24T01:12:28.958Z,0.98
2022-08-24T01:17:34.017Z,0.90
2022-08-24T01:22:52.620Z,1.20
2022-08-24T01:28:00.322Z,1.15
2022-08-24T01:33:08.313Z,1.15
2022-08-24T01:38:11.367Z,1.30
2022-08-24T01:43:15.522Z,1.15
2022-08-24T01:48:22.695Z,1.00
2022-08-24T01:53:25.951Z,1.50
2022-08-24T01:58:29.758Z,1.23
2022-08-24T02:03:32.084Z,1.20
2022-08-24T02:08:34.597Z,1.10
2022-08-24T02:13:40.587Z,1.17
2022-08-24T02:18:43.348Z,1.38
2022-08-24T02:23:45.717Z,1.00
2022-08-24T02:28:49.510Z,1.27
2022-08-24T02:33:51.897Z,1.23
2022-08-24T02:38:54.817Z,1.40
2022-08-24T02:43:59.186Z,1.27
2022-08-24T02:49:11.521Z,1.50
2022-08-24T02:54:15.811Z,1.30
2022-08-24T02:59:19.743Z,1.17
2022-08-24T03:04:22.156Z,1.33
2022-08-24T03:09:24.547Z,1.20
2022-08-24T03:14:32.807Z,1.58
2022-08-24T03:19:35.421Z,1.30
2022-08-24T03:24:37.750Z,1.63
2022-08-24T03:29:41.624Z,1.40
2022-08-24T03:34:44.044Z,1.23
2022-08-24T03:39:46.629Z,1.30
2022-08-24T03:44:50.449Z,1.13
2022-08-24T03:49:52.847Z,1.00
2022-08-24T03:54:55.243Z,1.50
2022-08-24T03:59:59.907Z,1.40
2022-08-24T04:05:02.375Z,1.85
2022-08-24T04:10:05.376Z,2.55
2022-08-24T04:15:10.574Z,2.15
2022-08-24T04:20:13.304Z,1.95
2022-08-24T04:25:15.582Z,1.90
2022-08-24T04:30:19.745Z,1.85
2022-08-24T04:35:22.075Z,1.27
2022-08-24T04:40:24.470Z,1.73
2022-08-24T04:45:28.962Z,1.55
2022-08-24T04:50:33.928Z,1.50
2022-08-24T04:55:44.763Z,1.40
2022-08-24T05:00:48.672Z,1.55
2022-08-24T05:05:52.256Z,1.58
2022-08-24T05:10:54.662Z,1.70
2022-08-24T05:15:58.469Z,1.10
2022-08-24T05:21:00.937Z,1.63
2022-08-24T05:26:08.121Z,1.50
2022-08-24T05:31:14.448Z,1.23
2022-08-24T05:36:18.989Z,1.27
2022-08-24T05:41:22.025Z,1.80
2022-08-24T05:46:25.871Z,1.40
2022-08-24T05:51:29.404Z,1.50
2022-08-24T05:56:32.326Z,1.50
2022-08-24T06:01:36.648Z,1.23
2022-08-24T06:06:39.296Z,1.58
2022-08-24T06:11:42.961Z,1.48
2022-08-24T06:16:48.070Z,1.58
2022-08-24T06:21:52.755Z,1.45
2022-08-24T06:26:55.101Z,1.88
2022-08-24T06:31:58.899Z,1.63
2022-08-24T06:37:02.404Z,1.48
2022-08-24T06:42:05.618Z,1.50
2022-08-24T06:47:09.441Z,1.40
2022-08-24T06:52:11.844Z,1.45
2022-08-24T06:57:14.561Z,1.48
2022-08-24T07:02:18.505Z,1.60
2022-08-24T07:07:20.952Z,1.52
2022-08-24T07:12:23.274Z,1.50
2022-08-24T07:17:27.163Z,2.10
2022-08-24T07:22:31.427Z,2.50
2022-08-24T07:27:34.783Z,1.60
2022-08-24T07:32:38.593Z,1.58
2022-08-24T07:37:41.732Z,1.42
2022-08-24T07:42:48.179Z,1.80
2022-08-24T07:47:55.522Z,1.60
2022-08-24T07:52:58.390Z,1.50
2022-08-24T07:58:00.923Z,1.88
2022-08-24T08:03:05.140Z,1.90
2022-08-24T08:08:07.709Z,1.60
2022-08-24T08:13:10.078Z,1.65
2022-08-24T08:18:16.130Z,1.67
2022-08-24T08:23:19.240Z,2.13
2022-08-24T08:28:25.994Z,1.92
2022-08-24T08:33:30.786Z,2.15
2022-08-24T08:38:34.060Z,1.90
2022-08-24T08:43:42.220Z,2.10
2022-08-24T08:49:06.099Z,2.72
2022-08-24T08:54:32.457Z,2.42
2022-08-24T08:59:47.832Z,2.05
2022-08-24T09:05:14.330Z,2.30
2022-08-24T09:10:40.171Z,2.70
2022-08-24T09:16:11.659Z,2.00
2022-08-24T09:21:41.625Z,3.35
2022-08-24T09:26:57.162Z,2.45
2022-08-24T09:32:08.884Z,2.92
2022-08-24T09:37:37.330Z,2.47
2022-08-24T09:43:29.967Z,2.70
2022-08-24T09:49:02.918Z,2.47
2022-08-24T09:54:44.642Z,2.55
2022-08-24T10:00:03.134Z,2.65
2022-08-24T10:05:20.750Z,2.28
2022-08-24T10:10:36.027Z,3.10
2022-08-24T10:15:48.344Z,2.80
2022-08-24T10:21:11.920Z,3.00
2022-08-24T10:26:23.562Z,2.63
2022-08-24T10:31:36.822Z,2.80
2022-08-24T10:36:57.128Z,2.58
2022-08-24T10:42:38.211Z,2.22
2022-08-24T10:48:04.766Z,2.50
2022-08-24T10:53:29.426Z,2.47
2022-08-24T10:58:58.312Z,4.60
2022-08-24T11:04:07.534Z,3.10
2022-08-24T11:09:18.655Z,3.20
2022-08-24T11:14:28.469Z,2.08
2022-08-24T11:19:35.606Z,2.08
2022-08-24T11:24:45.282Z,2.05
2022-08-24T11:30:02.069Z,2.20
2022-08-24T11:35:10.261Z,1.80
2022-08-24T11:40:13.884Z,1.83
2022-08-24T11:45:25.757Z,2.05
2022-08-24T11:50:36.385Z,1.80
2022-08-24T11:55:47.121Z,1.98
2022-08-24T12:00:59.676Z,2.05
2022-08-24T12:06:18.707Z,1.70
2022-08-24T12:11:32.678Z,1.88
2022-08-24T12:16:43.077Z,1.83
2022-08-24T12:21:52.111Z,1.77
2022-08-24T12:26:58.584Z,1.70
2022-08-24T12:32:04.926Z,1.77
2022-08-24T12:37:16.369Z,2.20
2022-08-24T12:42:23.922Z,2.30
2022-08-24T12:47:32.069Z,1.70
2022-08-24T12:53:04.737Z,2.00
2022-08-24T12:58:34.908Z,1.90
2022-08-24T13:03:41.677Z,1.83
2022-08-24T13:08:49.792Z,1.98
2022-08-24T13:14:16.805Z,1.63
2022-08-24T13:19:34.561Z,1.52
2022-08-24T13:24:47.820Z,1.50
2022-08-24T13:29:54.852Z,2.00
2022-08-24T13:34:58.840Z,1.92
2022-08-24T13:40:16.836Z,1.90
2022-08-24T13:45:26.811Z,1.50
2022-08-24T13:50:34.457Z,1.85
2022-08-24T13:55:49.308Z,1.50
2022-08-24T14:01:01.628Z,1.65
2022-08-24T14:06:25.932Z,1.40
2022-08-24T14:12:03.208Z,1.35
2022-08-24T14:17:20.157Z,1.02
2022-08-24T14:22:33.313Z,1.13
2022-08-24T14:27:41.263Z,1.30
2022-08-24T14:33:08.024Z,1.20
2022-08-24T14:38:34.709Z,1.45
2022-08-24T14:44:04.023Z,1.45
2022-08-24T14:49:15.119Z,1.35
2022-08-24T14:54:27.991Z,1.27
2022-08-24T14:59:44.457Z,1.55
2022-08-24T15:04:51.088Z,1.33
2022-08-24T15:09:55.392Z,1.30
2022-08-24T15:15:06.947Z,2.33
2022-08-24T15:20:17.771Z,1.40
2022-08-24T15:25:33.610Z,1.52
2022-08-24T15:30:40.525Z,1.30
2022-08-24T15:35:45.247Z,1.48
2022-08-24T15:40:50.345Z,1.27
2022-08-24T15:45:54.699Z,1.30
2022-08-24T15:50:57.536Z,1.10
2022-08-24T15:56:21.294Z,1.30
2022-08-24T16:01:26.592Z,1.55
2022-08-24T16:06:38.283Z,1.40
2022-08-24T16:11:44.181Z,1.48
2022-08-24T16:16:48.236Z,1.70
2022-08-24T16:21:58.385Z,1.30
2022-08-24T16:27:08.194Z,1.20
2022-08-24T16:32:21.408Z,1.38
2022-08-24T16:37:34.735Z,1.60
2022-08-24T16:42:38.254Z,1.13
2022-08-24T16:47:44.663Z,1.83
2022-08-24T16:52:48.383Z,1.60
2022-08-24T16:57:51.107Z,1.45
2022-08-24T17:02:54.987Z,1.65
2022-08-24T17:07:58.919Z,2.00
2022-08-24T17:13:01.425Z,1.95
2022-08-24T17:18:09.132Z,1.73
2022-08-24T17:23:11.563Z,2.83
2022-08-24T17:28:18.042Z,2.42
2022-08-24T17:33:21.889Z,3.15
2022-08-24T17:38:24.815Z,2.20
2022-08-24T17:43:27.450Z,2.40
2022-08-24T17:48:33.918Z,1.73
2022-08-24T17:53:36.599Z,1.45
2022-08-24T17:58:38.961Z,1.70
2022-08-24T18:03:42.974Z,1.85
2022-08-24T18:08:46.224Z,1.95
2022-08-24T18:13:48.604Z,1.73
2022-08-24T18:18:54.356Z,1.95
2022-08-24T18:23:56.848Z,1.90
2022-08-24T18:29:08.611Z,1.70
2022-08-24T18:34:21.651Z,1.83
2022-08-24T18:39:24.077Z,1.65
2022-08-24T18:44:31.093Z,1.70
2022-08-24T18:49:36.143Z,1.88
2022-08-24T18:54:42.087Z,2.13
2022-08-24T18:59:44.742Z,2.00
2022-08-24T19:04:48.815Z,1.90
2022-08-24T19:09:51.497Z,2.20
2022-08-24T19:14:57.039Z,2.05
2022-08-24T19:20:00.879Z,2.40
2022-08-24T19:25:03.582Z,1.98
2022-08-24T19:30:07.830Z,2.00
2022-08-24T19:35:13.771Z,2.72
2022-08-24T19:40:18.659Z,2.30
2022-08-24T19:45:26.840Z,2.40
2022-08-24T19:55:38.640Z,2.08
2022-08-24T20:00:49.179Z,2.30
2022-08-24T20:05:57.013Z,2.35
2022-08-24T20:11:00.194Z,2.83
2022-08-24T20:16:10.530Z,2.42
2022-08-24T20:21:16.157Z,1.92
2022-08-24T20:26:21.803Z,2.40
2022-08-24T20:31:28.633Z,2.25
2022-08-24T20:36:36.951Z,2.20
2022-08-24T20:41:39.578Z,2.42
2022-08-24T20:46:42.277Z,2.30
2022-08-24T20:51:50.672Z,2.50
2022-08-24T20:56:53.206Z,2.22
2022-08-24T21:01:55.726Z,1.90
2022-08-24T21:06:59.729Z,1.88
2022-08-24T21:12:02.159Z,2.45
2022-08-24T21:17:05.305Z,2.05
2022-08-24T21:22:09.268Z,2.53
2022-08-24T21:27:11.791Z,2.13
2022-08-24T21:32:14.394Z,2.10
2022-08-24T21:37:19.216Z,2.08
2022-08-24T21:42:21.602Z,2.00
2022-08-24T21:47:24.221Z,2.00
2022-08-24T21:52:28.140Z,2.28
2022-08-24T21:57:30.634Z,2.00
2022-08-24T22:02:33.028Z,1.80
2022-08-24T22:07:37.080Z,1.60
2022-08-24T22:12:41.616Z,1.90
2022-08-24T22:17:45.137Z,2.08
2022-08-24T22:22:49.478Z,1.75
2022-08-24T22:27:51.850Z,1.90
2022-08-24T22:32:54.311Z,1.80
2022-08-24T22:37:58.102Z,1.70
2022-08-24T22:43:00.617Z,2.00
2022-08-24T22:48:04.288Z,1.83
2022-08-24T22:53:08.189Z,1.90
2022-08-24T22:58:10.490Z,2.10
2022-08-24T23:03:12.881Z,2.05
2022-08-24T23:08:16.726Z,1.90
2022-08-24T23:13:20.877Z,1.80
2022-08-24T23:18:28.217Z,2.00
2022-08-24T23:23:32.113Z,2.05
2022-08-24T23:28:34.636Z,2.60
2022-08-24T23:33:39.424Z,2.00
2022-08-24T23:38:43.403Z,2.05
2022-08-24T23:43:45.739Z,2.10
2022-08-24T23:48:55.421Z,2.10
2022-08-24T23:54:00.506Z,2.22
2022-08-24T23:59:06.396Z,2.17
